createdAt,value
2023-08-28T00:00:15.213Z,3.30
2023-08-28T00:01:38.692Z,2.90
2023-08-28T00:03:01.505Z,2.83
2023-08-28T00:04:23.853Z,2.70
2023-08-28T00:05:46.333Z,2.57
2023-08-28T00:07:08.531Z,2.67
2023-08-28T00:08:30.680Z,2.57
2023-08-28T00:09:52.848Z,2.80
2023-08-28T00:11:14.936Z,2.67
2023-08-28T00:12:41.606Z,2.80
2023-08-28T00:14:03.786Z,3.00
2023-08-28T00:15:25.986Z,2.20
2023-08-28T00:16:48.075Z,2.60
2023-08-28T00:18:10.148Z,3.00
2023-08-28T00:19:32.614Z,3.07
2023-08-28T00:20:56.167Z,2.40
2023-08-28T00:22:19.363Z,2.63
2023-08-28T00:23:41.472Z,2.80
2023-08-28T00:25:04.855Z,2.20
2023-08-28T00:26:27.022Z,2.67
2023-08-28T00:27:49.131Z,2.93
2023-08-28T00:29:11.249Z,2.53
2023-08-28T00:30:33.484Z,2.37
2023-08-28T00:31:55.615Z,2.43
2023-08-28T00:33:17.952Z,2.77
2023-08-28T00:34:40.062Z,2.60
2023-08-28T00:36:02.142Z,2.47
2023-08-28T00:37:24.351Z,2.00
2023-08-28T00:38:46.479Z,2.57
2023-08-28T00:40:09.071Z,2.83
2023-08-28T00:41:31.155Z,2.47
2023-08-28T00:42:54.265Z,2.83
2023-08-28T00:44:16.469Z,2.40
2023-08-28T00:45:42.897Z,2.70
2023-08-28T00:47:07.904Z,2.70
2023-08-28T00:48:30.376Z,2.90
2023-08-28T00:49:52.896Z,2.53
2023-08-28T00:51:15.103Z,2.40
2023-08-28T00:52:37.381Z,2.30
2023-08-28T00:53:59.620Z,2.13
2023-08-28T00:55:21.785Z,3.00
2023-08-28T00:56:43.976Z,2.90
2023-08-28T00:58:06.282Z,2.50
2023-08-28T00:59:29.608Z,2.10
2023-08-28T01:00:51.670Z,2.33
2023-08-28T01:02:13.822Z,2.30
2023-08-28T01:03:36.063Z,2.20
2023-08-28T01:04:59.781Z,2.37
2023-08-28T01:06:47.025Z,2.10
2023-08-28T01:08:29.387Z,2.00
2023-08-28T01:10:28.529Z,2.53
2023-08-28T01:12:16.328Z,2.10
2023-08-28T01:13:56.555Z,2.10
2023-08-28T01:15:22.815Z,1.60
2023-08-28T01:16:46.989Z,2.10
2023-08-28T01:18:10.960Z,2.30
2023-08-28T01:19:42.929Z,2.00
2023-08-28T01:21:05.544Z,1.90
2023-08-28T01:22:36.613Z,1.83
2023-08-28T01:24:06.497Z,2.23
2023-08-28T01:25:32.493Z,2.00
2023-08-28T01:26:54.845Z,2.27
2023-08-28T01:28:17.448Z,1.93
2023-08-28T01:29:39.545Z,1.33
2023-08-28T01:31:05.958Z,2.23
2023-08-28T01:32:28.162Z,2.30
2023-08-28T01:33:52.796Z,2.17
2023-08-28T01:35:25.856Z,1.70
2023-08-28T01:36:51.958Z,2.47
2023-08-28T01:38:32.094Z,1.90
2023-08-28T01:39:59.853Z,1.90
2023-08-28T01:41:25.025Z,2.10
2023-08-28T01:42:48.116Z,2.20
2023-08-28T01:44:11.741Z,1.97
2023-08-28T01:45:34.516Z,2.00
2023-08-28T01:46:57.642Z,2.23
2023-08-28T01:48:19.943Z,2.60
2023-08-28T01:49:42.065Z,1.83
2023-08-28T01:51:04.221Z,2.40
2023-08-28T01:52:26.385Z,2.23
2023-08-28T01:53:49.070Z,2.40
2023-08-28T01:55:11.396Z,2.20
2023-08-28T01:56:33.774Z,2.80
2023-08-28T01:57:55.977Z,2.17
2023-08-28T01:59:18.164Z,2.47
2023-08-28T02:00:40.471Z,2.00
2023-08-28T02:02:02.985Z,2.23
2023-08-28T02:03:25.472Z,2.07
2023-08-28T02:04:48.473Z,3.47
2023-08-28T02:06:10.813Z,3.27
2023-08-28T02:07:32.978Z,2.33
2023-08-28T02:08:55.223Z,2.03
2023-08-28T02:10:17.454Z,2.57
2023-08-28T02:11:39.597Z,2.40
2023-08-28T02:13:02.178Z,2.70
2023-08-28T02:14:24.552Z,2.63
2023-08-28T02:15:46.682Z,2.83
2023-08-28T02:17:08.901Z,2.47
2023-08-28T02:18:31.608Z,2.73
2023-08-28T02:19:53.716Z,2.90
2023-08-28T02:21:15.789Z,2.70
2023-08-28T02:22:37.927Z,2.60
2023-08-28T02:24:00.012Z,2.80
2023-08-28T02:25:24.271Z,2.60
2023-08-28T02:26:46.828Z,3.00
2023-08-28T02:28:08.964Z,2.60
2023-08-28T02:29:31.082Z,3.00
2023-08-28T02:30:53.279Z,2.83
2023-08-28T02:32:15.419Z,2.80
2023-08-28T02:33:37.616Z,3.17
2023-08-28T02:34:59.729Z,2.73
2023-08-28T02:36:21.826Z,2.90
2023-08-28T02:37:43.968Z,2.73
2023-08-28T02:39:06.182Z,2.77
2023-08-28T02:40:28.515Z,2.80
2023-08-28T02:41:50.630Z,3.10
2023-08-28T02:43:12.853Z,3.03
2023-08-28T02:44:35.054Z,3.10
2023-08-28T02:45:57.152Z,2.43
2023-08-28T02:47:19.521Z,3.13
2023-08-28T02:48:41.628Z,3.17
2023-08-28T02:50:05.385Z,2.77
2023-08-28T02:51:28.045Z,3.00
2023-08-28T02:52:50.158Z,3.30
2023-08-28T02:54:12.298Z,2.40
2023-08-28T02:55:42.699Z,2.93
2023-08-28T02:57:04.999Z,3.23
2023-08-28T02:58:27.095Z,3.13
2023-08-28T02:59:49.231Z,2.87
2023-08-28T03:01:11.326Z,3.43
2023-08-28T03:02:33.595Z,2.97
2023-08-28T03:03:55.791Z,3.13
2023-08-28T03:05:18.003Z,3.00
2023-08-28T03:06:40.744Z,3.33
2023-08-28T03:08:02.889Z,2.87
2023-08-28T03:09:25.093Z,2.70
2023-08-28T03:10:47.176Z,3.03
2023-08-28T03:12:09.336Z,3.27
2023-08-28T03:13:31.483Z,3.10
2023-08-28T03:14:53.582Z,3.00
2023-08-28T03:16:15.722Z,3.40
2023-08-28T03:17:38.140Z,3.23
2023-08-28T03:19:00.499Z,2.93
2023-08-28T03:20:22.597Z,3.10
2023-08-28T03:21:44.867Z,3.50
2023-08-28T03:23:07.000Z,3.20
2023-08-28T03:24:29.113Z,3.40
2023-08-28T03:25:52.042Z,3.50
2023-08-28T03:27:14.292Z,3.47
2023-08-28T03:28:36.503Z,3.03
2023-08-28T03:29:58.675Z,3.33
2023-08-28T03:31:22.776Z,3.37
2023-08-28T03:32:44.927Z,3.90
2023-08-28T03:34:07.163Z,3.13
2023-08-28T03:35:30.136Z,3.33
2023-08-28T03:36:52.654Z,3.40
2023-08-28T03:38:14.874Z,3.27
2023-08-28T03:39:37.078Z,4.10
2023-08-28T03:40:59.144Z,3.60
2023-08-28T03:42:21.321Z,3.80
2023-08-28T03:43:43.467Z,3.50
2023-08-28T03:45:05.987Z,3.60
2023-08-28T03:46:28.132Z,4.10
2023-08-28T03:47:50.269Z,3.30
2023-08-28T03:49:12.821Z,4.33
2023-08-28T03:50:35.288Z,3.80
2023-08-28T03:52:00.412Z,3.57
2023-08-28T03:53:22.951Z,3.40
2023-08-28T03:54:45.525Z,4.07
2023-08-28T03:56:07.989Z,2.93
2023-08-28T03:57:30.819Z,3.70
2023-08-28T03:58:53.957Z,3.87
2023-08-28T04:00:16.828Z,4.17
2023-08-28T04:01:40.062Z,3.43
2023-08-28T04:03:02.653Z,4.70
2023-08-28T04:04:25.158Z,3.43
2023-08-28T04:05:49.750Z,4.30
2023-08-28T04:07:26.798Z,4.90
2023-08-28T04:08:49.969Z,4.20
2023-08-28T04:10:12.575Z,3.40
2023-08-28T04:11:34.682Z,3.67
2023-08-28T04:12:56.977Z,3.87
2023-08-28T04:14:19.171Z,4.00
2023-08-28T04:15:41.693Z,4.17
2023-08-28T04:17:03.933Z,4.00
2023-08-28T04:18:26.628Z,4.00
2023-08-28T04:19:52.271Z,3.80
2023-08-28T04:21:15.824Z,3.63
2023-08-28T04:22:38.569Z,4.40
2023-08-28T04:24:00.740Z,3.80
2023-08-28T04:25:22.842Z,3.67
2023-08-28T04:26:45.050Z,3.60
2023-08-28T04:28:07.215Z,4.60
2023-08-28T04:29:29.362Z,3.90
2023-08-28T04:30:51.468Z,4.00
2023-08-28T04:32:13.648Z,4.10
2023-08-28T04:33:35.817Z,3.70
2023-08-28T04:34:57.999Z,3.87
2023-08-28T04:36:20.117Z,3.10
2023-08-28T04:37:42.292Z,3.40
2023-08-28T04:39:04.431Z,4.20
2023-08-28T04:40:26.548Z,3.90
2023-08-28T04:41:48.681Z,3.40
2023-08-28T04:43:10.748Z,3.17
2023-08-28T04:44:32.875Z,3.23
2023-08-28T04:46:59.799Z,3.47
2023-08-28T04:48:21.903Z,2.90
2023-08-28T04:49:44.196Z,2.30
2023-08-28T04:51:06.503Z,2.90
2023-08-28T04:52:28.613Z,3.13
2023-08-28T04:53:50.906Z,3.10
2023-08-28T04:55:13.048Z,3.10
2023-08-28T04:56:35.178Z,2.40
2023-08-28T04:57:57.311Z,2.93
2023-08-28T04:59:19.498Z,2.70
2023-08-28T05:00:41.681Z,3.10
2023-08-28T05:02:03.941Z,3.10
2023-08-28T05:03:26.108Z,2.70
2023-08-28T05:04:48.256Z,3.20
2023-08-28T05:06:10.372Z,2.73
2023-08-28T05:07:32.541Z,2.53
2023-08-28T05:08:55.667Z,2.40
2023-08-28T05:10:17.797Z,2.63
2023-08-28T05:11:40.074Z,2.37
2023-08-28T05:13:02.580Z,2.50
2023-08-28T05:14:24.962Z,2.27
2023-08-28T05:15:47.047Z,2.60
2023-08-28T05:17:09.584Z,2.83
2023-08-28T05:18:32.109Z,2.13
2023-08-28T05:19:54.656Z,2.70
2023-08-28T05:21:17.308Z,2.40
2023-08-28T05:22:39.782Z,2.40
2023-08-28T05:24:02.299Z,2.67
2023-08-28T05:25:24.882Z,2.57
2023-08-28T05:26:47.371Z,2.37
2023-08-28T05:28:09.849Z,3.07
2023-08-28T05:29:33.016Z,2.60
2023-08-28T05:30:55.633Z,2.20
2023-08-28T05:32:18.178Z,2.50
2023-08-28T05:33:40.694Z,2.60
2023-08-28T05:35:04.703Z,2.30
2023-08-28T05:36:27.525Z,2.20
2023-08-28T05:37:51.389Z,2.87
2023-08-28T05:39:13.890Z,2.50
2023-08-28T05:40:36.394Z,2.17
2023-08-28T05:41:58.925Z,2.23
2023-08-28T05:43:24.402Z,2.60
2023-08-28T05:44:46.983Z,2.20
2023-08-28T05:46:09.475Z,2.27
2023-08-28T05:47:33.915Z,2.30
2023-08-28T05:48:56.448Z,1.90
2023-08-28T05:50:19.644Z,2.30
2023-08-28T05:51:42.459Z,2.40
2023-08-28T05:53:05.527Z,2.17
2023-08-28T05:54:28.077Z,2.60
2023-08-28T05:55:50.570Z,2.70
2023-08-28T05:57:13.282Z,2.60
2023-08-28T05:58:35.777Z,2.00
2023-08-28T05:59:58.318Z,2.30
2023-08-28T06:01:20.855Z,2.77
2023-08-28T06:02:43.887Z,2.20
2023-08-28T06:04:06.778Z,3.13
2023-08-28T06:05:29.337Z,2.40
2023-08-28T06:06:51.895Z,2.30
2023-08-28T06:08:14.477Z,2.83
2023-08-28T06:09:36.974Z,2.30
2023-08-28T06:10:59.596Z,2.60
2023-08-28T06:12:22.993Z,3.03
2023-08-28T06:13:45.716Z,2.80
2023-08-28T06:15:08.527Z,2.83
2023-08-28T06:16:31.096Z,2.77
2023-08-28T06:17:55.299Z,2.97
2023-08-28T06:19:18.060Z,2.50
2023-08-28T06:20:40.593Z,2.83
2023-08-28T06:22:06.271Z,3.23
2023-08-28T06:23:28.925Z,2.47
2023-08-28T06:24:54.040Z,3.00
2023-08-28T06:26:17.101Z,3.23
2023-08-28T06:27:40.053Z,2.70
2023-08-28T06:29:04.229Z,3.10
2023-08-28T06:30:26.854Z,3.03
2023-08-28T06:31:49.454Z,3.00
2023-08-28T06:33:12.022Z,2.90
2023-08-28T06:34:34.553Z,2.93
2023-08-28T06:35:57.485Z,3.10
2023-08-28T06:37:20.067Z,2.97
2023-08-28T06:38:42.936Z,3.03
2023-08-28T06:40:05.838Z,3.03
2023-08-28T06:41:28.403Z,2.80
2023-08-28T06:42:51.089Z,2.50
2023-08-28T06:44:13.838Z,2.90
2023-08-28T06:45:36.935Z,2.67
2023-08-28T06:46:59.514Z,2.97
2023-08-28T06:48:22.077Z,2.80
2023-08-28T06:49:44.743Z,2.90
2023-08-28T06:51:07.348Z,2.87
2023-08-28T06:52:29.972Z,2.60
2023-08-28T06:53:53.062Z,3.13
2023-08-28T06:55:15.733Z,2.97
2023-08-28T06:56:38.271Z,3.43
2023-08-28T06:58:00.861Z,2.87
2023-08-28T06:59:23.454Z,2.97
2023-08-28T07:00:46.082Z,3.30
2023-08-28T07:02:08.737Z,2.83
2023-08-28T07:03:36.388Z,2.97
2023-08-28T07:04:59.168Z,3.30
2023-08-28T07:06:21.977Z,3.43
2023-08-28T07:07:44.666Z,3.20
2023-08-28T07:09:07.328Z,3.70
2023-08-28T07:10:29.889Z,3.53
2023-08-28T07:11:52.553Z,2.80
2023-08-28T07:13:15.318Z,2.90
2023-08-28T07:14:37.870Z,3.13
2023-08-28T07:16:02.377Z,2.40
2023-08-28T07:17:24.897Z,2.97
2023-08-28T07:18:47.505Z,3.00
2023-08-28T07:20:10.662Z,2.60
2023-08-28T07:21:33.400Z,2.53
2023-08-28T07:22:55.961Z,2.30
2023-08-28T07:24:18.537Z,3.70
2023-08-28T07:25:41.120Z,2.13
2023-08-28T07:27:04.129Z,2.83
2023-08-28T07:28:26.852Z,2.90
2023-08-28T07:29:49.467Z,2.27
2023-08-28T07:31:13.248Z,3.13
2023-08-28T07:32:35.917Z,2.70
2023-08-28T07:34:00.494Z,2.90
2023-08-28T07:35:23.067Z,2.43
2023-08-28T07:36:45.730Z,3.47
2023-08-28T07:38:08.418Z,3.30
2023-08-28T07:39:30.964Z,3.17
2023-08-28T07:40:53.503Z,4.53
2023-08-28T07:42:16.100Z,3.70
2023-08-28T07:43:38.586Z,3.50
2023-08-28T07:45:01.104Z,2.90
2023-08-28T07:46:23.690Z,3.10
2023-08-28T07:47:46.712Z,2.77
2023-08-28T07:49:09.247Z,2.60
2023-08-28T07:50:32.160Z,3.03
2023-08-28T07:51:54.701Z,2.23
2023-08-28T07:53:17.199Z,2.80
2023-08-28T07:54:39.727Z,3.97
2023-08-28T07:56:03.492Z,2.80
2023-08-28T07:57:26.087Z,3.03
2023-08-28T07:58:48.586Z,2.97
2023-08-28T08:00:15.078Z,2.23
2023-08-28T08:01:39.505Z,2.67
2023-08-28T08:03:04.679Z,3.20
2023-08-28T08:04:28.053Z,3.00
2023-08-28T08:05:53.254Z,3.40
2023-08-28T08:07:15.849Z,2.97
2023-08-28T08:08:38.558Z,2.70
2023-08-28T08:10:01.141Z,2.90
2023-08-28T08:11:23.672Z,3.00
2023-08-28T08:12:46.251Z,2.50
2023-08-28T08:14:09.034Z,3.43
2023-08-28T08:15:31.576Z,3.40
2023-08-28T08:16:54.069Z,3.73
2023-08-28T08:18:16.580Z,3.50
2023-08-28T08:19:39.308Z,2.70
2023-08-28T08:21:02.537Z,3.10
2023-08-28T08:22:25.906Z,2.60
2023-08-28T08:23:50.116Z,2.40
2023-08-28T08:25:12.748Z,2.80
2023-08-28T08:26:35.313Z,2.30
2023-08-28T08:28:00.390Z,2.43
2023-08-28T08:29:22.888Z,2.37
2023-08-28T08:30:45.870Z,2.50
2023-08-28T08:32:08.431Z,2.50
2023-08-28T08:33:31.034Z,2.30
2023-08-28T08:34:53.753Z,2.73
2023-08-28T08:36:17.138Z,2.33
2023-08-28T08:37:40.641Z,2.10
2023-08-28T08:39:04.531Z,2.43
2023-08-28T08:40:27.771Z,2.20
2023-08-28T08:41:50.317Z,2.40
2023-08-28T08:43:13.261Z,2.10
2023-08-28T08:44:35.902Z,2.70
2023-08-28T08:46:06.101Z,2.27
2023-08-28T08:47:28.739Z,2.50
2023-08-28T08:48:51.572Z,2.00
2023-08-28T08:50:14.517Z,1.90
2023-08-28T08:51:38.628Z,2.33
2023-08-28T08:53:05.062Z,2.00
2023-08-28T08:54:32.018Z,1.83
2023-08-28T08:55:56.574Z,1.80
2023-08-28T08:57:26.712Z,1.87
2023-08-28T08:58:49.647Z,2.47
2023-08-28T09:00:16.671Z,2.23
2023-08-28T09:01:41.980Z,1.80
2023-08-28T09:03:05.014Z,2.67
2023-08-28T09:04:28.383Z,2.20
2023-08-28T09:05:51.921Z,1.80
2023-08-28T09:07:14.636Z,2.30
2023-08-28T09:08:38.839Z,2.10
2023-08-28T09:10:04.039Z,1.77
2023-08-28T09:11:26.534Z,2.40
2023-08-28T09:12:50.830Z,2.00
2023-08-28T09:14:14.624Z,2.63
2023-08-28T09:15:37.312Z,2.50
2023-08-28T09:16:59.913Z,2.40
2023-08-28T09:18:22.464Z,2.60
2023-08-28T09:19:48.538Z,2.30
2023-08-28T09:21:12.444Z,2.57
2023-08-28T09:22:47.717Z,2.60
2023-08-28T09:24:15.368Z,1.90
2023-08-28T09:25:39.731Z,2.53
2023-08-28T09:27:03.782Z,2.70
2023-08-28T09:28:26.361Z,2.53
2023-08-28T09:29:51.804Z,2.03
2023-08-28T09:31:14.479Z,3.37
2023-08-28T09:32:37.064Z,2.20
2023-08-28T09:34:08.094Z,2.50
2023-08-28T09:35:39.640Z,2.50
2023-08-28T09:37:02.469Z,2.43
2023-08-28T09:38:27.443Z,2.40
2023-08-28T09:39:59.276Z,2.43
2023-08-28T09:41:21.768Z,2.10
2023-08-28T09:42:44.360Z,2.80
2023-08-28T09:44:07.090Z,2.53
2023-08-28T09:45:33.480Z,2.73
2023-08-28T09:46:56.967Z,2.57
2023-08-28T09:48:19.662Z,2.07
2023-08-28T09:49:45.037Z,2.10
2023-08-28T09:51:08.625Z,2.20
2023-08-28T09:52:31.161Z,2.10
2023-08-28T09:54:02.771Z,2.50
2023-08-28T09:55:25.405Z,1.67
2023-08-28T09:56:47.994Z,2.20
2023-08-28T09:58:13.980Z,1.90
2023-08-28T09:59:38.901Z,1.60
2023-08-28T10:01:01.524Z,1.60
2023-08-28T10:02:24.909Z,1.40
2023-08-28T10:03:47.604Z,1.90
2023-08-28T10:05:11.337Z,1.73
2023-08-28T10:06:35.795Z,1.53
2023-08-28T10:08:03.637Z,1.67
2023-08-28T10:09:27.346Z,1.97
2023-08-28T10:10:50.121Z,2.00
2023-08-28T10:12:13.244Z,1.50
2023-08-28T10:13:36.079Z,1.97
2023-08-28T10:14:59.946Z,1.43
2023-08-28T10:16:24.821Z,1.60
2023-08-28T10:17:48.215Z,1.43
2023-08-28T10:19:14.468Z,1.60
2023-08-28T10:20:40.346Z,1.30
2023-08-28T10:22:04.312Z,1.50
2023-08-28T10:23:27.582Z,1.60
2023-08-28T10:24:50.678Z,2.00
2023-08-28T10:26:15.005Z,1.77
2023-08-28T10:27:37.806Z,1.77
2023-08-28T10:29:00.786Z,1.33
2023-08-28T10:30:23.388Z,1.37
2023-08-28T10:31:46.397Z,1.20
2023-08-28T10:33:11.449Z,1.83
2023-08-28T10:34:34.556Z,1.47
2023-08-28T10:35:57.201Z,1.90
2023-08-28T10:37:27.710Z,1.97
2023-08-28T10:40:19.630Z,1.70
2023-08-28T10:41:42.369Z,1.40
2023-08-28T10:43:06.035Z,1.50
2023-08-28T10:44:29.168Z,1.63
2023-08-28T10:45:52.772Z,1.63
2023-08-28T10:47:19.625Z,1.90
2023-08-28T10:48:42.155Z,1.40
2023-08-28T10:50:06.709Z,1.10
2023-08-28T10:51:33.405Z,1.30
2023-08-28T10:53:00.490Z,1.30
2023-08-28T10:54:23.027Z,1.30
2023-08-28T10:55:58.595Z,1.40
2023-08-28T10:57:25.051Z,1.50
2023-08-28T10:58:47.662Z,1.60
2023-08-28T11:00:16.884Z,1.07
2023-08-28T11:01:49.365Z,2.13
2023-08-28T11:03:16.540Z,1.30
2023-08-28T11:04:40.866Z,1.20
2023-08-28T11:06:23.358Z,0.90
2023-08-28T11:07:46.323Z,1.00
2023-08-28T11:09:38.069Z,1.10
2023-08-28T11:11:15.506Z,1.10
2023-08-28T11:12:43.756Z,1.10
2023-08-28T11:14:14.963Z,1.63
2023-08-28T11:15:41.072Z,4.20
2023-08-28T11:17:07.380Z,3.47
2023-08-28T11:18:30.568Z,1.60
2023-08-28T11:19:56.551Z,1.10
2023-08-28T11:21:19.307Z,0.93
2023-08-28T11:22:41.858Z,4.40
2023-08-28T11:24:04.820Z,1.43
2023-08-28T11:25:41.697Z,1.00
2023-08-28T11:27:04.254Z,1.00
2023-08-28T11:28:27.638Z,1.30
2023-08-28T11:29:50.245Z,1.07
2023-08-28T11:31:13.541Z,2.20
2023-08-28T11:32:36.659Z,1.20
2023-08-28T11:33:59.192Z,1.37
2023-08-28T11:35:22.621Z,4.20
2023-08-28T11:36:46.314Z,4.47
2023-08-28T11:38:08.933Z,3.87
2023-08-28T11:39:31.591Z,1.07
2023-08-28T11:40:56.353Z,1.40
2023-08-28T11:42:18.849Z,1.37
2023-08-28T11:43:42.095Z,1.27
2023-08-28T11:45:05.485Z,1.03
2023-08-28T11:46:28.094Z,1.40
2023-08-28T11:47:51.162Z,1.37
2023-08-28T11:49:14.837Z,1.20
2023-08-28T11:50:37.489Z,1.30
2023-08-28T11:52:00.039Z,1.20
2023-08-28T11:53:37.804Z,1.00
2023-08-28T11:55:01.942Z,1.30
2023-08-28T11:56:24.798Z,1.17
2023-08-28T11:57:49.460Z,1.30
2023-08-28T11:59:12.368Z,1.10
2023-08-28T12:00:35.268Z,0.97
2023-08-28T12:01:58.015Z,1.13
2023-08-28T12:03:20.750Z,1.60
2023-08-28T12:04:43.681Z,1.30
2023-08-28T12:06:09.759Z,1.13
2023-08-28T12:07:32.236Z,1.20
2023-08-28T12:08:54.819Z,1.30
2023-08-28T12:10:18.516Z,1.60
2023-08-28T12:11:41.016Z,1.10
2023-08-28T12:13:03.621Z,1.30
2023-08-28T12:14:27.093Z,1.10
2023-08-28T12:15:49.658Z,1.00
2023-08-28T12:17:18.957Z,1.20
2023-08-28T12:18:48.517Z,1.40
2023-08-28T12:20:22.570Z,0.90
2023-08-28T12:21:46.246Z,1.10
2023-08-28T12:23:08.743Z,1.33
2023-08-28T12:24:31.237Z,1.23
2023-08-28T12:25:56.297Z,1.03
2023-08-28T12:27:26.372Z,1.10
2023-08-28T12:28:49.026Z,1.20
2023-08-28T12:30:21.000Z,1.07
2023-08-28T12:31:43.530Z,1.20
2023-08-28T12:33:07.883Z,1.10
2023-08-28T12:34:31.536Z,1.17
2023-08-28T12:35:57.294Z,1.00
2023-08-28T12:37:20.041Z,0.90
2023-08-28T12:38:47.721Z,1.00
2023-08-28T12:40:12.496Z,1.10
2023-08-28T12:41:38.378Z,0.90
2023-08-28T12:43:05.000Z,1.20
2023-08-28T12:44:28.640Z,1.17
2023-08-28T12:45:51.578Z,1.07
2023-08-28T12:47:15.190Z,1.20
2023-08-28T12:48:37.880Z,1.17
2023-08-28T12:50:00.389Z,1.10
2023-08-28T12:51:25.069Z,1.00
2023-08-28T12:52:47.774Z,1.10
2023-08-28T12:54:10.273Z,1.20
2023-08-28T12:55:32.791Z,1.33
2023-08-28T12:56:55.369Z,1.23
2023-08-28T12:58:17.880Z,1.37
2023-08-28T12:59:40.388Z,1.30
2023-08-28T13:01:04.025Z,1.23
2023-08-28T13:02:27.869Z,1.53
2023-08-28T13:03:50.515Z,1.37
2023-08-28T13:05:13.087Z,1.10
2023-08-28T13:06:35.621Z,1.20
2023-08-28T13:07:59.581Z,1.20
2023-08-28T13:09:23.048Z,1.17
2023-08-28T13:10:45.581Z,1.40
2023-08-28T13:12:09.098Z,1.13
2023-08-28T13:13:31.628Z,1.27
2023-08-28T13:14:54.240Z,1.00
2023-08-28T13:16:17.144Z,1.30
2023-08-28T13:17:39.771Z,1.30
2023-08-28T13:19:02.447Z,1.10
2023-08-28T13:20:24.996Z,1.20
2023-08-28T13:21:49.015Z,1.00
2023-08-28T13:23:11.573Z,1.10
2023-08-28T13:24:43.904Z,1.37
2023-08-28T13:26:07.186Z,1.03
2023-08-28T13:27:29.656Z,1.00
2023-08-28T13:28:52.262Z,1.30
2023-08-28T13:30:14.910Z,0.97
2023-08-28T13:31:37.873Z,1.03
2023-08-28T13:33:05.150Z,1.30
2023-08-28T13:34:27.855Z,0.90
2023-08-28T13:35:50.587Z,1.00
2023-08-28T13:37:13.121Z,1.10
2023-08-28T13:38:36.110Z,1.03
2023-08-28T13:39:58.612Z,1.00
2023-08-28T13:41:21.173Z,1.00
2023-08-28T13:42:43.700Z,0.90
2023-08-28T13:44:06.445Z,1.00
2023-08-28T13:45:29.118Z,0.77
2023-08-28T13:46:52.809Z,0.90
2023-08-28T13:48:15.308Z,1.07
2023-08-28T13:49:37.822Z,1.17
2023-08-28T13:51:00.352Z,0.97
2023-08-28T13:52:22.849Z,1.07
2023-08-28T13:53:45.387Z,0.90
2023-08-28T13:55:08.320Z,0.90
2023-08-28T13:56:30.864Z,1.20
2023-08-28T13:57:53.441Z,0.93
2023-08-28T13:59:15.931Z,1.27
2023-08-28T14:00:38.405Z,0.90
2023-08-28T14:02:00.932Z,1.00
2023-08-28T14:03:23.543Z,1.00
2023-08-28T14:04:46.173Z,1.17
2023-08-28T14:06:08.923Z,1.10
2023-08-28T14:07:31.464Z,0.90
2023-08-28T14:08:54.062Z,1.00
2023-08-28T14:10:17.914Z,1.03
2023-08-28T14:11:40.519Z,1.13
2023-08-28T14:13:03.451Z,1.10
2023-08-28T14:14:26.436Z,0.83
2023-08-28T14:15:52.771Z,1.40
2023-08-28T14:17:15.348Z,1.10
2023-08-28T14:18:37.854Z,1.00
2023-08-28T14:20:00.479Z,0.80
2023-08-28T14:21:23.141Z,0.90
2023-08-28T14:22:45.719Z,0.80
2023-08-28T14:24:09.238Z,0.80
2023-08-28T14:25:31.896Z,0.83
2023-08-28T14:26:54.460Z,0.70
2023-08-28T14:28:22.065Z,1.03
2023-08-28T14:29:45.634Z,1.13
2023-08-28T14:31:08.413Z,1.10
2023-08-28T14:32:30.921Z,0.93
2023-08-28T14:33:53.458Z,0.80
2023-08-28T14:35:18.967Z,1.00
2023-08-28T14:36:41.524Z,0.67
2023-08-28T14:38:04.159Z,0.90
2023-08-28T14:39:26.690Z,0.80
2023-08-28T14:40:52.942Z,0.90
2023-08-28T14:42:15.489Z,0.90
2023-08-28T14:43:38.157Z,0.80
2023-08-28T14:45:00.670Z,0.90
2023-08-28T14:46:23.391Z,0.70
2023-08-28T14:47:46.289Z,0.83
2023-08-28T14:49:08.896Z,1.30
2023-08-28T14:50:31.423Z,0.80
2023-08-28T14:51:53.907Z,0.80
2023-08-28T14:53:16.480Z,0.87
2023-08-28T14:54:39.063Z,1.07
2023-08-28T14:56:01.556Z,0.80
2023-08-28T14:57:24.241Z,0.80
2023-08-28T14:58:46.844Z,0.80
2023-08-28T15:00:12.261Z,0.70
2023-08-28T15:01:34.858Z,0.80
2023-08-28T15:02:57.570Z,0.80
2023-08-28T15:04:20.240Z,0.60
2023-08-28T15:05:44.180Z,0.80
2023-08-28T15:07:07.004Z,0.70
2023-08-28T15:08:29.493Z,0.60
2023-08-28T15:09:51.990Z,0.80
2023-08-28T15:11:14.500Z,0.80
2023-08-28T15:12:37.771Z,0.63
2023-08-28T15:14:00.302Z,0.80
2023-08-28T15:15:22.809Z,0.70
2023-08-28T15:16:46.353Z,0.80
2023-08-28T15:18:09.189Z,0.70
2023-08-28T15:19:31.827Z,0.80
2023-08-28T15:20:54.337Z,0.70
2023-08-28T15:22:16.870Z,0.70
2023-08-28T15:23:40.297Z,0.70
2023-08-28T15:25:02.882Z,0.83
2023-08-28T15:26:25.455Z,1.20
2023-08-28T15:27:48.096Z,0.70
2023-08-28T15:29:11.158Z,0.90
2023-08-28T15:30:35.215Z,0.80
2023-08-28T15:31:57.747Z,0.80
2023-08-28T15:33:20.315Z,0.60
2023-08-28T15:34:42.819Z,0.90
2023-08-28T15:36:05.444Z,1.30
2023-08-28T15:37:27.917Z,0.97
2023-08-28T15:38:50.407Z,0.67
2023-08-28T15:40:12.903Z,0.67
2023-08-28T15:41:35.379Z,0.90
2023-08-28T15:42:57.974Z,0.80
2023-08-28T15:44:20.485Z,0.63
2023-08-28T15:45:53.765Z,0.70
2023-08-28T15:47:16.365Z,0.70
2023-08-28T15:48:39.020Z,0.80
2023-08-28T15:50:02.365Z,0.70
2023-08-28T15:51:24.934Z,0.93
2023-08-28T15:52:47.431Z,0.90
2023-08-28T15:54:09.914Z,1.00
2023-08-28T15:55:32.421Z,1.10
2023-08-28T15:56:55.202Z,2.43
2023-08-28T15:58:17.688Z,2.47
2023-08-28T15:59:47.282Z,10.33
2023-08-28T16:01:09.808Z,3.50
2023-08-28T16:02:32.503Z,2.07
2023-08-28T16:03:55.836Z,2.20
2023-08-28T16:05:18.433Z,2.80
2023-08-28T16:06:41.009Z,2.47
2023-08-28T16:08:04.694Z,1.63
2023-08-28T16:09:27.185Z,1.50
2023-08-28T16:10:50.117Z,1.90
2023-08-28T16:12:13.196Z,0.70
2023-08-28T16:13:35.736Z,0.90
2023-08-28T16:14:58.404Z,0.90
2023-08-28T16:16:20.884Z,0.90
2023-08-28T16:17:43.722Z,1.37
2023-08-28T16:19:06.712Z,1.20
2023-08-28T16:20:31.893Z,0.90
2023-08-28T16:21:54.511Z,0.90
2023-08-28T16:23:17.084Z,0.90
2023-08-28T16:24:40.867Z,1.50
2023-08-28T16:26:03.894Z,1.53
2023-08-28T16:27:26.668Z,1.40
2023-08-28T16:28:49.130Z,0.70
2023-08-28T16:30:12.950Z,0.70
2023-08-28T16:31:35.659Z,0.90
2023-08-28T16:32:58.340Z,0.80
2023-08-28T16:34:21.087Z,0.90
2023-08-28T16:35:43.790Z,0.80
2023-08-28T16:37:06.311Z,0.90
2023-08-28T16:38:28.882Z,0.70
2023-08-28T16:39:51.458Z,1.23
2023-08-28T16:41:14.036Z,1.43
2023-08-28T16:42:36.758Z,1.00
2023-08-28T16:43:59.465Z,1.43
2023-08-28T16:45:22.070Z,1.03
2023-08-28T16:46:45.442Z,0.80
2023-08-28T16:48:08.311Z,1.00
2023-08-28T16:49:30.786Z,1.00
2023-08-28T16:50:54.140Z,1.00
2023-08-28T16:52:16.636Z,1.20
2023-08-28T16:53:39.182Z,0.90
2023-08-28T16:55:01.743Z,0.60
2023-08-28T16:56:24.443Z,0.80
2023-08-28T16:57:48.069Z,0.73
2023-08-28T16:59:11.630Z,1.00
2023-08-28T17:00:36.066Z,0.70
2023-08-28T17:01:58.604Z,0.70
2023-08-28T17:03:22.056Z,0.70
2023-08-28T17:04:45.264Z,0.80
2023-08-28T17:06:07.869Z,0.80
2023-08-28T17:07:30.455Z,0.90
2023-08-28T17:08:52.991Z,0.80
2023-08-28T17:10:15.516Z,1.13
2023-08-28T17:11:38.033Z,0.80
2023-08-28T17:13:00.933Z,0.70
2023-08-28T17:14:23.493Z,0.93
2023-08-28T17:15:46.261Z,0.80
2023-08-28T17:17:10.393Z,0.97
2023-08-28T17:18:33.162Z,1.10
2023-08-28T17:19:55.746Z,0.83
2023-08-28T17:21:18.274Z,1.00
2023-08-28T17:22:40.797Z,0.80
2023-08-28T17:24:03.796Z,1.00
2023-08-28T17:25:27.258Z,0.80
2023-08-28T17:26:49.830Z,0.80
2023-08-28T17:28:13.080Z,0.80
2023-08-28T17:29:35.675Z,0.70
2023-08-28T17:31:04.646Z,0.77
2023-08-28T17:32:30.768Z,0.90
2023-08-28T17:33:53.313Z,1.10
2023-08-28T17:35:15.988Z,1.17
2023-08-28T17:36:39.117Z,1.00
2023-08-28T17:38:01.668Z,0.80
2023-08-28T17:39:26.709Z,1.00
2023-08-28T17:40:49.779Z,0.93
2023-08-28T17:42:12.323Z,1.00
2023-08-28T17:43:34.929Z,0.80
2023-08-28T17:44:57.421Z,0.73
2023-08-28T17:46:22.025Z,0.87
2023-08-28T17:47:44.668Z,1.00
2023-08-28T17:49:07.526Z,0.90
2023-08-28T17:50:30.013Z,0.80
2023-08-28T17:51:52.643Z,0.80
2023-08-28T17:53:16.713Z,0.70
2023-08-28T17:54:39.269Z,1.03
2023-08-28T17:56:01.856Z,1.10
2023-08-28T17:57:24.433Z,1.20
2023-08-28T17:58:46.731Z,0.90
2023-08-28T18:00:10.625Z,0.90
2023-08-28T18:01:33.391Z,0.80
2023-08-28T18:03:02.731Z,0.90
2023-08-28T18:04:29.493Z,1.00
2023-08-28T18:05:52.072Z,0.90
2023-08-28T18:07:14.947Z,0.90
2023-08-28T18:08:37.358Z,0.90
2023-08-28T18:09:59.602Z,0.80
2023-08-28T18:11:22.365Z,0.97
2023-08-28T18:12:44.489Z,0.70
2023-08-28T18:14:06.628Z,1.10
2023-08-28T18:15:28.855Z,0.80
2023-08-28T18:16:51.017Z,0.90
2023-08-28T18:18:13.133Z,0.90
2023-08-28T18:19:35.347Z,1.00
2023-08-28T18:20:57.486Z,1.20
2023-08-28T18:22:19.926Z,1.30
2023-08-28T18:23:42.105Z,0.90
2023-08-28T18:25:04.810Z,0.90
2023-08-28T18:26:28.364Z,0.90
2023-08-28T18:28:05.908Z,0.80
2023-08-28T18:29:32.255Z,0.70
2023-08-28T18:30:55.011Z,0.80
2023-08-28T18:32:17.181Z,0.90
2023-08-28T18:33:39.376Z,1.00
2023-08-28T18:35:01.469Z,1.30